Tangent, Oregon
Current Conditions -  °F | °C
As of 9:15 PM on Saturday 20 Dec 2014 (Local Time) from KCVO Reporting Station
Overcast Overcast  
Wind Chill: 57°   Ceiling: 7500
Heat Index: 57°   Visibility: 10mi
Dew Point: 54°   Wind: 13mph
Humidity: 88%   Direction: 180°S
Pressure: 29.79"   Gusts: NA
Location:  44.54°N, 123.11°W
Report Text: KCVO 210515Z AUTO 18011KT 10SM FEW060 BKN075 OVC110 14/12 A2979 RMK AO1 P0002
Loading
Personal Weather Stations






























Interactive Weather Map New forecast layout! Learn more

10-Day Weather Forecast

Advertisements
Track Severe Weather on mobile